createdAt,value
2017-11-26T00:01:05.867Z,22.7
2017-11-26T00:02:18.572Z,22.69
2017-11-26T00:03:31.250Z,22.66
2017-11-26T00:04:43.997Z,22.72
2017-11-26T00:05:56.733Z,22.67
2017-11-26T00:07:08.996Z,22.64
2017-11-26T00:08:22.325Z,22.52
2017-11-26T00:09:35.004Z,22.49
2017-11-26T00:10:47.760Z,22.39
2017-11-26T00:12:00.516Z,22.46
2017-11-26T00:13:13.258Z,22.44
2017-11-26T00:14:25.521Z,22.39
2017-11-26T00:15:37.736Z,22.33
2017-11-26T00:16:50.463Z,22.41
2017-11-26T00:18:03.203Z,22.39
2017-11-26T00:19:15.911Z,22.33
2017-11-26T00:20:28.566Z,22.29
2017-11-26T00:21:41.336Z,22.3
2017-11-26T00:22:54.101Z,22.33
2017-11-26T00:24:06.833Z,22.3
2017-11-26T00:25:19.586Z,22.3
2017-11-26T00:26:32.299Z,22.17
2017-11-26T00:27:44.650Z,22.19
2017-11-26T00:28:57.400Z,22.17
2017-11-26T00:30:09.210Z,22.19
2017-11-26T00:31:21.540Z,22.09
2017-11-26T00:32:33.861Z,22.15
2017-11-26T00:33:46.183Z,22.14
2017-11-26T00:34:58.494Z,22.2
2017-11-26T00:36:10.316Z,22.29
2017-11-26T00:37:23.030Z,22.29
2017-11-26T00:38:35.755Z,22.3
2017-11-26T00:39:48.539Z,22.29
2017-11-26T00:41:01.192Z,22.3
2017-11-26T00:42:13.894Z,22.33
2017-11-26T00:43:26.241Z,22.29
2017-11-26T00:44:38.969Z,22.38
2017-11-26T00:45:51.205Z,22.41
2017-11-26T00:47:03.961Z,22.41
2017-11-26T00:48:16.218Z,22.44
2017-11-26T00:49:28.903Z,22.44
2017-11-26T00:50:41.160Z,22.52
2017-11-26T00:51:53.429Z,22.6
2017-11-26T00:53:06.132Z,22.56
2017-11-26T00:54:18.366Z,22.56
2017-11-26T00:55:31.132Z,22.6
2017-11-26T00:56:43.336Z,22.59
2017-11-26T00:57:55.575Z,22.63
2017-11-26T00:59:07.862Z,22.63
2017-11-26T01:00:20.666Z,22.69
2017-11-26T01:01:33.361Z,22.64
2017-11-26T01:02:46.081Z,22.7
2017-11-26T01:03:58.313Z,22.66
2017-11-26T01:05:10.998Z,22.64
2017-11-26T01:06:23.711Z,22.67
2017-11-26T01:07:35.985Z,22.66
2017-11-26T01:08:48.705Z,22.69
2017-11-26T01:10:01.460Z,22.72
2017-11-26T01:11:14.205Z,22.84
2017-11-26T01:12:26.925Z,22.75
2017-11-26T01:13:39.831Z,22.81
2017-11-26T01:14:51.664Z,22.88
2017-11-26T01:16:04.437Z,22.89
2017-11-26T01:17:17.216Z,22.85
2017-11-26T01:18:29.508Z,22.76
2017-11-26T01:19:42.197Z,22.76
2017-11-26T01:20:54.868Z,22.69
2017-11-26T01:22:07.126Z,22.89
2017-11-26T01:23:19.891Z,22.86
2017-11-26T01:24:32.147Z,22.88
2017-11-26T01:25:43.967Z,22.76
2017-11-26T01:26:56.267Z,22.82
2017-11-26T01:28:09.048Z,22.79
2017-11-26T01:29:21.351Z,22.82
2017-11-26T01:30:34.125Z,22.7
2017-11-26T01:31:46.884Z,22.7
2017-11-26T01:32:59.607Z,22.72
2017-11-26T01:34:11.463Z,22.72
2017-11-26T01:35:24.176Z,22.76
2017-11-26T01:36:36.440Z,22.78
2017-11-26T01:37:49.156Z,22.86
2017-11-26T01:39:01.832Z,22.81
2017-11-26T01:40:14.547Z,22.85
2017-11-26T01:41:26.838Z,22.89
2017-11-26T01:42:39.119Z,22.82
2017-11-26T01:43:51.855Z,22.88
2017-11-26T01:45:04.629Z,22.85
2017-11-26T01:46:17.390Z,22.85
2017-11-26T01:47:30.076Z,22.76
2017-11-26T01:48:42.806Z,22.69
2017-11-26T01:49:55.090Z,22.76
2017-11-26T01:51:06.936Z,22.75
2017-11-26T01:52:19.655Z,22.79
2017-11-26T01:53:32.393Z,22.69
2017-11-26T01:54:45.115Z,22.79
2017-11-26T01:55:57.952Z,22.78
2017-11-26T01:57:10.722Z,22.72
2017-11-26T01:58:22.551Z,22.67
2017-11-26T01:59:35.266Z,22.72
2017-11-26T02:00:47.529Z,22.82
2017-11-26T02:02:00.188Z,22.76
2017-11-26T02:03:12.942Z,22.7
2017-11-26T02:04:25.669Z,22.7
2017-11-26T02:05:38.417Z,22.69
2017-11-26T02:06:51.159Z,22.84
2017-11-26T02:08:03.857Z,22.81
2017-11-26T02:09:16.551Z,22.91
2017-11-26T02:10:29.258Z,22.89
2017-11-26T02:11:41.569Z,22.99
2017-11-26T02:12:54.254Z,22.88
2017-11-26T02:14:06.909Z,22.81
2017-11-26T02:15:18.744Z,22.88
2017-11-26T02:16:31.426Z,22.89
2017-11-26T02:17:44.203Z,22.88
2017-11-26T02:18:56.858Z,22.96
2017-11-26T02:20:09.551Z,22.85
2017-11-26T02:21:22.265Z,22.97
2017-11-26T02:22:34.951Z,22.96
2017-11-26T02:23:47.755Z,22.97
2017-11-26T02:25:00.540Z,23.01
2017-11-26T02:26:12.884Z,23
2017-11-26T02:27:25.595Z,23.09
2017-11-26T02:28:38.273Z,23.09
2017-11-26T02:29:50.986Z,23.06
2017-11-26T02:31:03.698Z,23.06
2017-11-26T02:32:16.408Z,23.11
2017-11-26T02:33:29.091Z,23.04
2017-11-26T02:34:41.405Z,22.91
2017-11-26T02:35:54.193Z,23
2017-11-26T02:37:06.947Z,23
2017-11-26T02:38:19.648Z,23.11
2017-11-26T02:39:31.969Z,23.04
2017-11-26T02:40:44.711Z,23.16
2017-11-26T02:41:57.538Z,22.96
2017-11-26T02:43:10.358Z,22.91
2017-11-26T02:44:23.132Z,22.81
2017-11-26T02:45:35.963Z,22.86
2017-11-26T02:46:48.771Z,22.84
2017-11-26T02:48:01.567Z,22.89
2017-11-26T02:49:14.358Z,22.89
2017-11-26T02:50:27.164Z,22.88
2017-11-26T02:51:39.973Z,23.03
2017-11-26T02:52:52.779Z,22.86
2017-11-26T02:54:05.126Z,22.88
2017-11-26T02:55:17.476Z,22.89
2017-11-26T02:56:30.306Z,22.89
2017-11-26T02:57:43.079Z,22.88
2017-11-26T02:58:55.872Z,23.04
2017-11-26T03:00:08.677Z,22.99
2017-11-26T03:01:21.014Z,23.07
2017-11-26T03:02:33.805Z,23.07
2017-11-26T03:03:46.152Z,23.07
2017-11-26T03:04:58.939Z,23.01
2017-11-26T03:06:10.838Z,23.12
2017-11-26T03:07:23.639Z,23.16
2017-11-26T03:08:36.428Z,23.19
2017-11-26T03:09:49.226Z,23.16
2017-11-26T03:11:02.096Z,23.15
2017-11-26T03:12:14.878Z,23.11
2017-11-26T03:13:27.676Z,23.18
2017-11-26T03:14:40.456Z,23.07
2017-11-26T03:15:53.220Z,23
2017-11-26T03:17:06.008Z,23.04
2017-11-26T03:18:18.798Z,23.15
2017-11-26T03:19:31.600Z,23.11
2017-11-26T03:20:44.390Z,22.97
2017-11-26T03:21:57.297Z,22.93
2017-11-26T03:23:10.091Z,23
2017-11-26T03:24:22.905Z,23.06
2017-11-26T03:25:35.721Z,23.12
2017-11-26T03:26:48.511Z,23.04
2017-11-26T03:28:01.303Z,23.09
2017-11-26T03:29:14.087Z,23.11
2017-11-26T03:30:26.421Z,23.06
2017-11-26T03:31:39.263Z,23.07
2017-11-26T03:32:52.053Z,23.12
2017-11-26T03:34:04.843Z,23.12
2017-11-26T03:35:17.654Z,23.07
2017-11-26T03:36:30.431Z,23.16
2017-11-26T03:37:43.237Z,23.19
2017-11-26T03:38:56.017Z,23.26
2017-11-26T03:40:08.818Z,23.29
2017-11-26T03:41:21.586Z,23.23
2017-11-26T03:42:34.365Z,23.26
2017-11-26T03:43:47.175Z,23.34
2017-11-26T03:44:59.508Z,23.31
2017-11-26T03:46:12.296Z,23.34
2017-11-26T03:47:25.098Z,23.34
2017-11-26T03:48:37.455Z,23.31
2017-11-26T03:49:50.281Z,23.32
2017-11-26T03:51:03.053Z,23.31
2017-11-26T03:52:15.835Z,23.35
2017-11-26T03:53:28.173Z,23.34
2017-11-26T03:54:40.983Z,23.23
2017-11-26T03:55:53.766Z,23.15
2017-11-26T03:57:06.595Z,23.14
2017-11-26T03:58:19.387Z,23.06
2017-11-26T03:59:31.730Z,23.04
2017-11-26T04:00:44.044Z,23.06
2017-11-26T04:01:56.755Z,22.99
2017-11-26T04:03:09.019Z,22.99
2017-11-26T04:04:21.259Z,22.94
2017-11-26T04:05:33.628Z,22.91
2017-11-26T04:06:46.391Z,22.82
2017-11-26T04:07:59.124Z,22.82
2017-11-26T04:09:11.378Z,22.74
2017-11-26T04:10:24.133Z,22.61
2017-11-26T04:11:36.837Z,22.63
2017-11-26T04:12:49.572Z,22.56
2017-11-26T04:14:02.276Z,22.59
2017-11-26T04:15:14.997Z,22.61
2017-11-26T04:16:27.307Z,22.63
2017-11-26T04:17:39.590Z,22.69
2017-11-26T04:18:52.346Z,22.66
2017-11-26T04:20:04.602Z,22.44
2017-11-26T04:21:16.892Z,22.33
2017-11-26T04:22:29.674Z,22.29
2017-11-26T04:23:41.955Z,22.14
2017-11-26T04:24:54.688Z,22.17
2017-11-26T04:26:07.395Z,22.29
2017-11-26T04:27:19.683Z,22.27
2017-11-26T04:28:32.362Z,22.29
2017-11-26T04:29:44.574Z,22.36
2017-11-26T04:30:56.863Z,22.42
2017-11-26T04:32:09.561Z,22.44
2017-11-26T04:33:22.518Z,22.48
2017-11-26T04:34:35.285Z,22.45
2017-11-26T04:35:47.632Z,22.49
2017-11-26T04:37:00.407Z,22.52
2017-11-26T04:38:12.722Z,22.39
2017-11-26T04:39:25.034Z,22.41
2017-11-26T04:40:37.793Z,22.48
2017-11-26T04:41:50.592Z,22.38
2017-11-26T04:43:03.371Z,22.45
2017-11-26T04:44:16.152Z,22.45
2017-11-26T04:45:28.471Z,22.46
2017-11-26T04:46:41.278Z,22.48
2017-11-26T04:47:54.036Z,22.46
2017-11-26T04:49:06.391Z,22.46
2017-11-26T04:50:18.263Z,22.45
2017-11-26T04:51:31.034Z,22.42
2017-11-26T04:52:43.774Z,22.56
2017-11-26T04:53:56.550Z,22.45
2017-11-26T04:55:09.326Z,22.45
2017-11-26T04:56:22.115Z,22.38
2017-11-26T04:57:34.911Z,22.39
2017-11-26T04:58:47.686Z,22.46
2017-11-26T05:00:00.461Z,22.52
2017-11-26T05:01:12.777Z,22.51
2017-11-26T05:02:25.581Z,22.56
2017-11-26T05:03:38.369Z,22.72
2017-11-26T05:04:51.149Z,22.7
2017-11-26T05:06:03.931Z,22.61
2017-11-26T05:07:16.720Z,22.69
2017-11-26T05:08:28.599Z,22.66
2017-11-26T05:09:41.388Z,22.67
2017-11-26T05:10:54.194Z,22.59
2017-11-26T05:12:06.989Z,22.61
2017-11-26T05:13:19.357Z,22.41
2017-11-26T05:14:32.130Z,22.33
2017-11-26T05:15:45.010Z,22.14
2017-11-26T05:16:57.362Z,22.09
2017-11-26T05:18:10.174Z,22.06
2017-11-26T05:19:22.991Z,21.63
2017-11-26T05:20:35.781Z,21.56
2017-11-26T05:21:48.601Z,21.53
2017-11-26T05:23:01.418Z,21.38
2017-11-26T05:24:13.732Z,21.34
2017-11-26T05:25:26.040Z,21.37
2017-11-26T05:26:38.813Z,21.34
2017-11-26T05:27:51.587Z,21.31
2017-11-26T05:29:04.377Z,21.19
2017-11-26T05:30:17.138Z,21.19
2017-11-26T05:31:29.926Z,21.26
2017-11-26T05:32:42.703Z,21.19
2017-11-26T05:33:54.968Z,21.16
2017-11-26T05:35:07.660Z,21.19
2017-11-26T05:36:20.426Z,21.01
2017-11-26T05:37:33.141Z,20.98
2017-11-26T05:38:45.410Z,20.9
2017-11-26T05:39:58.152Z,20.82
2017-11-26T05:41:10.809Z,20.83
2017-11-26T05:42:23.499Z,20.82
2017-11-26T05:43:36.262Z,20.78
2017-11-26T05:44:49.032Z,20.78
2017-11-26T05:46:01.303Z,20.75
2017-11-26T05:47:13.975Z,20.69
2017-11-26T05:48:26.760Z,20.69
2017-11-26T05:49:39.473Z,20.79
2017-11-26T05:50:52.187Z,20.83
2017-11-26T05:52:04.872Z,20.72
2017-11-26T05:53:17.588Z,20.79
2017-11-26T05:54:30.403Z,20.87
2017-11-26T05:55:43.097Z,20.83
2017-11-26T05:56:55.833Z,20.83
2017-11-26T05:58:08.516Z,20.76
2017-11-26T05:59:21.186Z,20.75
2017-11-26T06:00:33.878Z,20.75
2017-11-26T06:01:46.564Z,20.81
2017-11-26T06:02:59.234Z,20.71
2017-11-26T06:04:11.458Z,20.71
2017-11-26T06:05:24.146Z,20.68
2017-11-26T06:06:36.871Z,20.64
2017-11-26T06:07:49.605Z,20.64
2017-11-26T06:09:02.335Z,20.73
2017-11-26T06:10:14.662Z,20.78
2017-11-26T06:11:27.372Z,20.71
2017-11-26T06:12:40.096Z,20.81
2017-11-26T06:13:52.303Z,20.83
2017-11-26T06:15:05.009Z,20.87
2017-11-26T06:16:17.793Z,20.83
2017-11-26T06:17:30.466Z,20.83
2017-11-26T06:18:43.178Z,20.88
2017-11-26T06:19:55.846Z,20.71
2017-11-26T06:21:08.558Z,20.76
2017-11-26T06:22:21.210Z,20.85
2017-11-26T06:23:33.924Z,20.83
2017-11-26T06:24:46.125Z,20.69
2017-11-26T06:25:58.815Z,20.82
2017-11-26T06:27:11.622Z,20.82
2017-11-26T06:28:24.304Z,20.83
2017-11-26T06:29:36.924Z,20.88
2017-11-26T06:30:49.658Z,20.93
2017-11-26T06:32:02.388Z,20.93
2017-11-26T06:33:15.078Z,21.06
2017-11-26T06:34:27.806Z,21.08
2017-11-26T06:35:40.089Z,21
2017-11-26T06:36:52.759Z,21.06
2017-11-26T06:38:04.573Z,20.96
2017-11-26T06:39:17.268Z,20.96
2017-11-26T06:40:29.489Z,21
2017-11-26T06:41:42.174Z,21.01
2017-11-26T06:42:54.038Z,21.01
2017-11-26T06:44:06.272Z,21.08
2017-11-26T06:45:18.497Z,21.05
2017-11-26T06:46:30.763Z,21.06
2017-11-26T06:47:43.439Z,21.08
2017-11-26T06:48:56.066Z,20.96
2017-11-26T06:50:08.704Z,20.94
2017-11-26T06:51:21.342Z,20.98
2017-11-26T06:52:33.991Z,20.85
2017-11-26T06:53:46.200Z,20.85
2017-11-26T06:54:58.385Z,20.94
2017-11-26T06:56:10.665Z,20.91
2017-11-26T06:57:23.328Z,20.87
2017-11-26T06:58:35.953Z,20.91
2017-11-26T06:59:48.637Z,20.94
2017-11-26T07:01:00.861Z,20.93
2017-11-26T07:02:13.545Z,20.97
2017-11-26T07:03:26.227Z,20.91
2017-11-26T07:04:38.912Z,20.93
2017-11-26T07:05:51.610Z,20.93
2017-11-26T07:07:04.289Z,20.96
2017-11-26T07:08:16.931Z,20.96
2017-11-26T07:09:29.582Z,20.97
2017-11-26T07:10:41.794Z,21.08
2017-11-26T07:11:54.457Z,21.11
2017-11-26T07:13:06.698Z,21.11
2017-11-26T07:14:18.937Z,20.96
2017-11-26T07:15:31.137Z,20.96
2017-11-26T07:16:43.399Z,21
2017-11-26T07:17:56.138Z,20.96
2017-11-26T07:19:08.846Z,20.9
2017-11-26T07:20:21.565Z,20.88
2017-11-26T07:21:33.823Z,20.87
2017-11-26T07:22:46.571Z,20.91
2017-11-26T07:23:59.235Z,20.94
2017-11-26T07:25:11.955Z,20.98
2017-11-26T07:26:24.648Z,20.93
2017-11-26T07:27:36.848Z,21.03
2017-11-26T07:28:49.570Z,20.98
2017-11-26T07:30:02.250Z,21
2017-11-26T07:31:14.966Z,21.05
2017-11-26T07:32:27.636Z,21.05
2017-11-26T07:33:40.302Z,21.09
2017-11-26T07:34:52.497Z,21.11
2017-11-26T07:36:05.119Z,21.11
2017-11-26T07:37:17.845Z,20.97
2017-11-26T07:38:30.501Z,21.11
2017-11-26T07:39:43.130Z,21.13
2017-11-26T07:40:55.853Z,21.09
2017-11-26T07:42:08.100Z,21.06
2017-11-26T07:43:20.290Z,21.08
2017-11-26T07:44:32.978Z,21.11
2017-11-26T07:45:45.640Z,21.06
2017-11-26T07:46:58.297Z,21.06
2017-11-26T07:48:10.528Z,21.03
2017-11-26T07:49:23.156Z,20.97
2017-11-26T07:50:35.380Z,21.06
2017-11-26T07:51:48.080Z,21.01
2017-11-26T07:53:00.774Z,20.93
2017-11-26T07:54:13.449Z,20.97
2017-11-26T07:55:26.081Z,20.88
2017-11-26T07:56:38.733Z,20.93
2017-11-26T07:57:51.360Z,21.06
2017-11-26T07:59:03.947Z,20.94
2017-11-26T08:00:16.574Z,21.01
2017-11-26T08:01:29.237Z,21.03
2017-11-26T08:02:41.442Z,21.03
2017-11-26T08:03:54.108Z,21
2017-11-26T08:05:06.290Z,21.05
2017-11-26T08:06:18.581Z,20.96
2017-11-26T08:07:31.304Z,21.03
2017-11-26T08:08:43.925Z,20.94
2017-11-26T08:09:56.161Z,20.96
2017-11-26T08:11:08.802Z,20.97
2017-11-26T08:12:21.021Z,20.97
2017-11-26T08:13:33.227Z,21.01
2017-11-26T08:14:45.854Z,20.94
2017-11-26T08:15:58.075Z,21.03
2017-11-26T08:17:10.255Z,20.98
2017-11-26T08:18:22.440Z,20.96
2017-11-26T08:19:35.021Z,21.03
2017-11-26T08:20:47.720Z,21.03
2017-11-26T08:21:59.932Z,21.05
2017-11-26T08:23:12.668Z,21.08
2017-11-26T08:24:25.323Z,20.97
2017-11-26T08:25:38.021Z,21.06
2017-11-26T08:26:50.749Z,21.01
2017-11-26T08:28:03.392Z,21.03
2017-11-26T08:29:15.577Z,21.08
2017-11-26T08:30:28.217Z,21.01
2017-11-26T08:31:40.823Z,21.03
2017-11-26T08:32:53.512Z,20.96
2017-11-26T08:34:06.173Z,20.93
2017-11-26T08:35:18.380Z,20.93
2017-11-26T08:36:31.093Z,21.01
2017-11-26T08:37:43.708Z,21.01
2017-11-26T08:38:56.420Z,20.97
2017-11-26T08:40:08.670Z,20.91
2017-11-26T08:41:21.367Z,20.9
2017-11-26T08:42:34.052Z,20.85
2017-11-26T08:43:46.760Z,20.85
2017-11-26T08:44:59.492Z,20.94
2017-11-26T08:46:11.706Z,20.91
2017-11-26T08:47:24.335Z,20.96
2017-11-26T08:48:37.018Z,20.93
2017-11-26T08:49:49.644Z,20.85
2017-11-26T08:51:02.351Z,20.96
2017-11-26T08:52:14.615Z,20.96
2017-11-26T08:53:26.886Z,21.06
2017-11-26T08:54:39.577Z,21.01
2017-11-26T08:55:51.806Z,20.96
2017-11-26T08:57:03.953Z,20.97
2017-11-26T08:58:16.608Z,20.98
2017-11-26T08:59:29.177Z,20.9
2017-11-26T09:00:41.760Z,21
2017-11-26T09:01:54.358Z,21
2017-11-26T09:03:06.904Z,21.01
2017-11-26T09:04:19.504Z,20.91
2017-11-26T09:05:32.048Z,20.9
2017-11-26T09:06:44.674Z,20.91
2017-11-26T09:07:57.224Z,20.93
2017-11-26T09:09:09.873Z,20.91
2017-11-26T09:10:22.427Z,20.91
2017-11-26T09:11:34.995Z,20.91
2017-11-26T09:12:47.553Z,20.94
2017-11-26T09:14:00.164Z,20.98
2017-11-26T09:15:12.845Z,20.96
2017-11-26T09:16:25.478Z,20.94
2017-11-26T09:17:38.084Z,20.91
2017-11-26T09:18:50.733Z,21.03
2017-11-26T09:20:03.326Z,21.01
2017-11-26T09:21:15.471Z,21.05
2017-11-26T09:22:27.221Z,21.01
2017-11-26T09:23:39.823Z,21.16
2017-11-26T09:24:51.981Z,21.11
2017-11-26T09:26:04.625Z,21.08
2017-11-26T09:27:16.796Z,21.08
2017-11-26T09:28:28.922Z,21.06
2017-11-26T09:29:40.652Z,21.06
2017-11-26T09:30:53.256Z,21.09
2017-11-26T09:32:04.987Z,21.09
2017-11-26T09:33:17.575Z,21.18
2017-11-26T09:34:30.173Z,21.31
2017-11-26T09:35:42.338Z,21.21
2017-11-26T09:36:54.945Z,21.19
2017-11-26T09:38:07.578Z,21.3
2017-11-26T09:39:20.204Z,21.28
2017-11-26T09:40:32.852Z,21.34
2017-11-26T09:41:45.488Z,21.31
2017-11-26T09:42:58.153Z,21.31
2017-11-26T09:44:10.808Z,21.42
2017-11-26T09:45:23.022Z,21.48
2017-11-26T09:46:35.623Z,21.43
2017-11-26T09:47:47.850Z,21.49
2017-11-26T09:49:00.512Z,21.52
2017-11-26T09:50:13.329Z,21.43
2017-11-26T09:51:25.980Z,21.58
2017-11-26T09:52:38.165Z,21.59
2017-11-26T09:53:50.884Z,21.58
2017-11-26T09:55:03.511Z,21.59
2017-11-26T09:56:15.302Z,21.48
2017-11-26T09:57:27.545Z,21.4
2017-11-26T09:58:40.256Z,21.48
2017-11-26T09:59:52.911Z,21.42
2017-11-26T10:01:05.181Z,21.38
2017-11-26T10:02:17.850Z,21.43
2017-11-26T10:03:30.539Z,21.49
2017-11-26T10:04:42.759Z,21.58
2017-11-26T10:05:54.591Z,21.52
2017-11-26T10:07:06.832Z,21.59
2017-11-26T10:08:19.497Z,21.63
2017-11-26T10:09:32.220Z,21.64
2017-11-26T10:10:44.521Z,21.67
2017-11-26T10:11:57.193Z,21.71
2017-11-26T10:13:09.881Z,21.61
2017-11-26T10:14:22.559Z,21.67
2017-11-26T10:15:35.273Z,21.64
2017-11-26T10:16:47.966Z,21.7
2017-11-26T10:18:00.615Z,21.61
2017-11-26T10:19:13.294Z,21.63
2017-11-26T10:20:25.558Z,21.61
2017-11-26T10:21:38.229Z,21.68
2017-11-26T10:22:50.470Z,21.63
2017-11-26T10:24:03.128Z,21.64
2017-11-26T10:25:15.336Z,21.64
2017-11-26T10:26:27.575Z,21.68
2017-11-26T10:27:40.252Z,21.75
2017-11-26T10:28:52.875Z,21.81
2017-11-26T10:30:05.159Z,21.83
2017-11-26T10:31:17.855Z,21.68
2017-11-26T10:32:30.119Z,21.79
2017-11-26T10:33:42.347Z,21.81
2017-11-26T10:34:55.043Z,21.83
2017-11-26T10:36:07.745Z,21.89
2017-11-26T10:37:20.401Z,21.79
2017-11-26T10:38:33.100Z,21.82
2017-11-26T10:39:45.772Z,21.75
2017-11-26T10:40:58.446Z,21.75
2017-11-26T10:42:10.677Z,21.73
2017-11-26T10:43:23.343Z,21.75
2017-11-26T10:44:35.585Z,21.83
2017-11-26T10:45:47.905Z,21.96
2017-11-26T10:47:00.668Z,21.91
2017-11-26T10:48:13.385Z,21.86
2017-11-26T10:49:26.074Z,21.83
2017-11-26T10:50:38.765Z,21.68
2017-11-26T10:51:51.496Z,21.63
2017-11-26T10:53:04.207Z,21.59
2017-11-26T10:54:16.952Z,21.66
2017-11-26T10:55:29.213Z,21.68
2017-11-26T10:56:41.435Z,21.61
2017-11-26T10:57:54.196Z,21.63
2017-11-26T10:59:06.062Z,21.68
2017-11-26T11:00:18.765Z,21.64
2017-11-26T11:01:31.032Z,21.68
2017-11-26T11:02:42.826Z,21.66
2017-11-26T11:03:55.551Z,21.71
2017-11-26T11:05:08.259Z,21.82
2017-11-26T11:06:20.543Z,21.66
2017-11-26T11:07:32.792Z,21.67
2017-11-26T11:08:45.505Z,21.64
2017-11-26T11:09:58.229Z,21.82
2017-11-26T11:11:10.540Z,21.83
2017-11-26T11:12:22.846Z,21.74
2017-11-26T11:13:35.547Z,21.73
2017-11-26T11:14:47.844Z,21.59
2017-11-26T11:16:00.148Z,21.64
2017-11-26T11:17:12.460Z,21.64
2017-11-26T11:18:25.207Z,21.61
2017-11-26T11:19:37.503Z,21.59
2017-11-26T11:20:50.247Z,21.51
2017-11-26T11:22:03.024Z,21.46
2017-11-26T11:23:15.766Z,21.37
2017-11-26T11:24:28.530Z,21.46
2017-11-26T11:25:40.825Z,21.43
2017-11-26T11:26:53.562Z,21.43
2017-11-26T11:28:06.316Z,21.4
2017-11-26T11:29:19.064Z,21.45
2017-11-26T11:30:31.811Z,21.48
2017-11-26T11:31:44.556Z,21.4
2017-11-26T11:32:57.303Z,21.51
2017-11-26T11:34:10.055Z,21.49
2017-11-26T11:35:22.357Z,21.51
2017-11-26T11:36:35.107Z,21.66
2017-11-26T11:37:47.873Z,21.67
2017-11-26T11:39:00.612Z,21.71
2017-11-26T11:40:13.352Z,21.83
2017-11-26T11:41:26.109Z,21.85
2017-11-26T11:42:38.428Z,21.9
2017-11-26T11:43:51.184Z,21.96
2017-11-26T11:45:03.937Z,21.96
2017-11-26T11:46:16.690Z,22.04
2017-11-26T11:47:29.023Z,22.04
2017-11-26T11:48:41.785Z,22.02
2017-11-26T11:49:54.135Z,22.02
2017-11-26T11:51:06.911Z,22.11
2017-11-26T11:52:19.671Z,22.19
2017-11-26T11:53:32.436Z,22.19
2017-11-26T11:54:45.229Z,22.17
2017-11-26T11:55:58.004Z,22.35
2017-11-26T11:57:10.324Z,22.27
2017-11-26T11:58:23.101Z,22.14
2017-11-26T11:59:35.902Z,22.14
2017-11-26T12:00:48.680Z,22.29
2017-11-26T12:02:00.544Z,22.26
2017-11-26T12:03:12.858Z,22.3
2017-11-26T12:04:25.637Z,22.35
2017-11-26T12:05:38.424Z,22.36
2017-11-26T12:06:51.235Z,22.61
2017-11-26T12:08:03.993Z,22.64
2017-11-26T12:09:16.789Z,22.78
2017-11-26T12:10:29.572Z,22.79
2017-11-26T12:11:42.374Z,22.91
2017-11-26T12:12:55.163Z,23.01
2017-11-26T12:14:07.497Z,23.21
2017-11-26T12:15:20.298Z,23.19
2017-11-26T12:16:33.084Z,23.23
2017-11-26T12:17:45.886Z,23.32
2017-11-26T12:18:58.677Z,23.41
2017-11-26T12:20:11.425Z,23.56
2017-11-26T12:21:24.156Z,23.63
2017-11-26T12:22:36.470Z,23.78
2017-11-26T12:23:48.793Z,23.74
2017-11-26T12:25:01.565Z,23.93
2017-11-26T12:26:14.347Z,24.15
2017-11-26T12:27:26.647Z,24.27
2017-11-26T12:28:39.007Z,24.39
2017-11-26T12:29:51.829Z,24.48
2017-11-26T12:31:04.599Z,24.52
2017-11-26T12:32:17.457Z,24.53
2017-11-26T12:33:30.292Z,24.33
2017-11-26T12:34:42.659Z,24.29
2017-11-26T12:35:55.458Z,24.3
2017-11-26T12:37:08.306Z,24.41
2017-11-26T12:38:21.117Z,24.37
2017-11-26T12:39:33.961Z,24.37
2017-11-26T12:40:46.278Z,24.66
2017-11-26T12:41:59.188Z,24.61
2017-11-26T12:43:12.010Z,24.71
2017-11-26T12:44:24.764Z,24.79
2017-11-26T12:45:37.136Z,24.94
2017-11-26T12:46:49.922Z,25.17
2017-11-26T12:48:02.669Z,25.12
2017-11-26T12:49:15.389Z,25.23
2017-11-26T12:50:28.156Z,25.31
2017-11-26T12:51:40.887Z,25.29
2017-11-26T12:52:53.155Z,25.2
2017-11-26T12:54:05.910Z,25.23
2017-11-26T12:55:18.646Z,25.23
2017-11-26T12:56:31.401Z,25.09
2017-11-26T12:57:43.712Z,25.14
2017-11-26T12:58:56.037Z,25.26
2017-11-26T13:00:08.347Z,25.44
2017-11-26T13:01:20.626Z,25.56
2017-11-26T13:02:33.384Z,25.72
2017-11-26T13:03:46.141Z,25.72
2017-11-26T13:04:58.411Z,25.98
2017-11-26T13:06:10.723Z,26.03
2017-11-26T13:07:23.515Z,26.2
2017-11-26T13:08:36.250Z,26.11
2017-11-26T13:09:48.960Z,26.16
2017-11-26T13:11:00.796Z,26.35
2017-11-26T13:12:13.464Z,26.54
2017-11-26T13:13:26.203Z,26.65
2017-11-26T13:14:38.445Z,26.72
2017-11-26T13:15:50.657Z,26.54
2017-11-26T13:17:02.024Z,26.5
2017-11-26T13:18:14.725Z,26.49
2017-11-26T13:19:27.411Z,26.39
2017-11-26T13:20:40.137Z,26.29
2017-11-26T13:21:52.880Z,26.06
2017-11-26T13:23:05.721Z,26.01
2017-11-26T13:24:18.441Z,26.12
2017-11-26T13:25:31.189Z,26.21
2017-11-26T13:26:43.904Z,26.28
2017-11-26T13:27:56.154Z,26.23
2017-11-26T13:29:08.864Z,26.16
2017-11-26T13:30:21.543Z,26.16
2017-11-26T13:31:34.304Z,26.16
2017-11-26T13:32:47.003Z,26.24
2017-11-26T13:33:58.885Z,26.61
2017-11-26T13:35:11.178Z,26.76
2017-11-26T13:36:23.920Z,26.71
2017-11-26T13:37:36.622Z,26.59
2017-11-26T13:38:49.330Z,26.34
2017-11-26T13:40:02.051Z,26.38
2017-11-26T13:41:14.812Z,26.56
2017-11-26T13:42:27.537Z,26.42
2017-11-26T13:43:39.799Z,26.46
2017-11-26T13:44:52.529Z,26.51
2017-11-26T13:46:05.305Z,26.41
2017-11-26T13:47:17.583Z,26.34
2017-11-26T13:48:30.332Z,26.28
2017-11-26T13:49:43.011Z,26.27
2017-11-26T13:50:55.698Z,26.2
2017-11-26T13:52:08.406Z,26.09
2017-11-26T13:53:21.140Z,25.83
2017-11-26T13:54:33.941Z,25.78
2017-11-26T13:55:46.292Z,25.82
2017-11-26T13:56:59.033Z,25.85
2017-11-26T13:58:11.781Z,25.86
2017-11-26T13:59:24.121Z,25.9
2017-11-26T14:00:36.905Z,25.83
2017-11-26T14:01:49.666Z,25.72
2017-11-26T14:03:02.423Z,25.81
2017-11-26T14:04:14.765Z,25.75
2017-11-26T14:05:27.542Z,25.83
2017-11-26T14:06:40.390Z,25.75
2017-11-26T14:07:52.725Z,25.81
2017-11-26T14:09:05.545Z,25.78
2017-11-26T14:10:18.261Z,25.82
2017-11-26T14:11:30.599Z,25.83
2017-11-26T14:12:43.361Z,25.94
2017-11-26T14:13:56.130Z,26.24
2017-11-26T14:15:08.466Z,26.41
2017-11-26T14:16:21.184Z,26.46
2017-11-26T14:17:33.927Z,26.57
2017-11-26T14:18:46.683Z,26.78
2017-11-26T14:19:58.529Z,26.98
2017-11-26T14:21:11.343Z,26.97
2017-11-26T14:22:23.232Z,26.98
2017-11-26T14:23:36.041Z,26.88
2017-11-26T14:24:48.811Z,26.86
2017-11-26T14:26:01.645Z,26.76
2017-11-26T14:27:14.433Z,26.66
2017-11-26T14:28:26.773Z,26.53
2017-11-26T14:29:39.503Z,26.42
2017-11-26T14:30:52.267Z,26.41
2017-11-26T14:32:04.590Z,26.28
2017-11-26T14:33:17.366Z,26
2017-11-26T14:34:30.117Z,25.78
2017-11-26T14:35:42.844Z,25.82
2017-11-26T14:36:55.589Z,25.75
2017-11-26T14:38:07.938Z,25.81
2017-11-26T14:39:20.260Z,25.76
2017-11-26T14:40:33.064Z,25.83
2017-11-26T14:41:45.873Z,25.76
2017-11-26T14:42:58.650Z,25.78
2017-11-26T14:44:11.478Z,25.89
2017-11-26T14:45:23.801Z,25.91
2017-11-26T14:46:36.562Z,26.04
2017-11-26T14:47:48.871Z,26.31
2017-11-26T14:49:01.630Z,26.41
2017-11-26T14:50:14.364Z,26.64
2017-11-26T14:51:27.127Z,26.65
2017-11-26T14:52:39.866Z,26.64
2017-11-26T14:53:52.141Z,26.61
2017-11-26T14:55:04.910Z,26.53
2017-11-26T14:56:17.661Z,26.61
2017-11-26T14:57:30.408Z,26.39
2017-11-26T14:58:43.132Z,26.29
2017-11-26T14:59:55.891Z,26.24
2017-11-26T15:01:08.233Z,26.06
2017-11-26T15:02:20.996Z,26.12
2017-11-26T15:03:33.774Z,26.03
2017-11-26T15:04:46.094Z,26.09
2017-11-26T15:05:57.935Z,26.2
2017-11-26T15:07:10.664Z,26.27
2017-11-26T15:08:22.959Z,26.16
2017-11-26T15:09:35.753Z,26.04
2017-11-26T15:10:48.542Z,26.04
2017-11-26T15:12:01.330Z,26.03
2017-11-26T15:13:14.111Z,25.97
2017-11-26T15:14:26.462Z,26.04
2017-11-26T15:15:39.241Z,25.97
2017-11-26T15:16:52.035Z,26.11
2017-11-26T15:18:04.355Z,26.16
2017-11-26T15:19:16.684Z,26.2
2017-11-26T15:20:29.446Z,26.42
2017-11-26T15:21:42.230Z,26.59
2017-11-26T15:22:54.995Z,26.68
2017-11-26T15:24:07.392Z,26.73
2017-11-26T15:25:19.789Z,26.79
2017-11-26T15:26:32.647Z,26.78
2017-11-26T15:27:45.455Z,26.68
2017-11-26T15:28:57.944Z,26.66
2017-11-26T15:30:10.771Z,26.66
2017-11-26T15:31:23.659Z,26.72
2017-11-26T15:32:36.517Z,26.68
2017-11-26T15:33:49.468Z,26.57
2017-11-26T15:35:02.271Z,26.65
2017-11-26T15:36:15.055Z,26.53
2017-11-26T15:37:26.941Z,26.42
2017-11-26T15:38:39.678Z,26.44